Time;durP1;ratioP1;P1;durP2;ratioP2;P2;SDS_P1;SDS_P2;PMS_P1;PMS_P2;Temp;Humidity;BMP_temperature;BMP_pressure;BME280_temperature;BME280_humidity;BME280_pressure;Samples;Min_cycle;Max_cycle;Signal;HPM_P1;HPM_P2
2021/12/18 00:01:42;;;;;;;20.65;10.73;;;0.00;70.10;;;;;;5034668;28;20021;-24
2021/12/18 00:04:08;;;;;;;28.80;16.25;;;0.00;69.90;;;;;;5034540;28;20095;-24
2021/12/18 00:06:34;;;;;;;36.50;20.50;;;0.00;69.60;;;;;;5034524;28;20416;-24
2021/12/18 00:09:00;;;;;;;37.83;19.52;;;0.00;69.40;;;;;;5034539;28;20068;-24
2021/12/18 00:11:28;;;;;;;33.00;17.27;;;0.00;70.00;;;;;;5034802;28;20041;-24
2021/12/18 00:13:54;;;;;;;43.63;24.05;;;0.00;69.50;;;;;;5034673;28;20367;-24
2021/12/18 00:16:21;;;;;;;57.72;32.70;;;0.00;69.50;;;;;;5034184;28;20018;-23
2021/12/18 00:18:48;;;;;;;63.10;32.25;;;0.00;69.70;;;;;;5034531;28;20026;-25
2021/12/18 00:21:17;;;;;;;52.00;28.67;;;0.00;70.50;;;;;;5034633;28;20470;-25
2021/12/18 00:23:43;;;;;;;36.65;21.08;;;0.00;70.70;;;;;;5035122;28;20109;-25
2021/12/18 00:26:09;;;;;;;28.92;14.95;;;0.00;70.00;;;;;;5034226;28;20108;-24
2021/12/18 00:28:35;;;;;;;47.55;25.00;;;0.00;69.90;;;;;;5034572;28;20033;-23
2021/12/18 00:31:01;;;;;;;25.38;13.05;;;0.00;70.20;;;;;;5034399;28;20025;-23
2021/12/18 00:33:27;;;;;;;23.15;12.30;;;0.00;70.30;;;;;;5034590;28;20021;-23
2021/12/18 00:35:53;;;;;;;26.83;13.85;;;0.00;69.90;;;;;;5033872;28;20417;-23
2021/12/18 00:38:19;;;;;;;27.17;13.90;;;0.10;69.90;;;;;;5034596;28;20484;-25
2021/12/18 00:41:10;;;;;;;23.92;11.57;;;0.00;70.30;;;;;;5034245;28;20037;-24
2021/12/18 00:44:01;;;;;;;27.52;14.13;;;0.00;70.20;;;;;;5033841;28;20033;-23
2021/12/18 00:46:25;;;;;;;69.10;34.17;;;0.00;70.40;;;;;;5033446;28;20042;-23
2021/12/18 00:48:52;;;;;;;21.80;11.60;;;0.00;70.30;;;;;;5033703;28;20032;-23
2021/12/18 00:51:18;;;;;;;57.72;30.73;;;0.00;69.90;;;;;;5034198;28;20032;-23
2021/12/18 00:53:44;;;;;;;31.65;17.60;;;0.00;70.40;;;;;;5034011;28;20021;-20
2021/12/18 00:56:09;;;;;;;20.83;11.50;;;0.00;70.40;;;;;;5033777;28;20064;-23
2021/12/18 00:58:35;;;;;;;46.65;25.38;;;0.00;70.40;;;;;;5033457;28;20549;-22
2021/12/18 01:01:07;;;;;;;23.42;12.35;;;0.00;70.50;;;;;;5033906;28;20034;-23
2021/12/18 01:03:34;;;;;;;14.40;8.93;;;0.00;70.50;;;;;;5033550;28;20025;-23
2021/12/18 01:06:00;;;;;;;19.73;11.02;;;0.00;70.50;;;;;;5032588;28;20034;-22
2021/12/18 01:08:26;;;;;;;18.77;9.75;;;0.00;70.40;;;;;;5033251;28;20107;-23
2021/12/18 01:11:13;;;;;;;55.72;29.45;;;0.00;70.30;;;;;;5034032;28;20088;-23
2021/12/18 01:13:52;;;;;;;35.85;18.90;;;0.00;70.30;;;;;;5033340;28;20030;-23
2021/12/18 01:16:22;;;;;;;43.88;23.70;;;0.00;70.70;;;;;;5033194;28;20033;-24
2021/12/18 01:24:17;;;;;;;53.97;29.85;;;-0.10;70.60;;;;;;5033046;28;20572;-24
2021/12/18 01:26:43;;;;;;;46.63;24.48;;;-0.10;72.70;;;;;;5033546;28;20112;-24
2021/12/18 01:29:09;;;;;;;25.20;13.48;;;-0.20;72.20;;;;;;5033169;28;20524;-23
2021/12/18 01:31:35;;;;;;;30.60;17.50;;;-0.20;70.80;;;;;;5033144;28;20029;-25
2021/12/18 01:34:01;;;;;;;43.63;24.90;;;-0.20;70.90;;;;;;5033475;28;20034;-24
2021/12/18 01:36:30;;;;;;;38.65;20.92;;;-0.20;71.90;;;;;;5031878;28;20022;-23
2021/12/18 01:38:57;;;;;;;23.20;12.65;;;-0.20;71.20;;;;;;5033452;28;20030;-24
2021/12/18 01:41:23;;;;;;;59.80;32.17;;;-0.20;71.00;;;;;;5033045;28;20063;-24
2021/12/18 01:51:59;;;;;;;48.00;25.98;;;-0.30;71.30;;;;;;5037464;28;20459;-23
2021/12/18 01:54:25;;;;;;;;;;;-0.30;71.40;;;;;;5037647;28;20030;-22
2021/12/18 01:56:51;;;;;;;21.65;12.70;;;-0.30;71.60;;;;;;5037344;28;19960;-22
2021/12/18 01:59:38;;;;;;;21.73;10.70;;;-0.30;71.20;;;;;;5037289;28;20163;-23
2021/12/18 02:02:04;;;;;;;44.90;24.73;;;-0.40;71.20;;;;;;5037190;28;20095;-23
2021/12/18 02:04:30;;;;;;;27.80;14.98;;;-0.40;72.10;;;;;;5036689;28;20018;-24
2021/12/18 02:06:59;;;;;;;19.95;11.02;;;-0.40;71.20;;;;;;5037181;28;20029;-24
2021/12/18 02:09:37;;;;;;;21.83;11.95;;;-0.40;70.90;;;;;;5037036;28;20512;-24
2021/12/18 02:12:03;;;;;;;19.40;10.65;;;-0.30;70.90;;;;;;5036805;28;20033;-23
2021/12/18 02:20:00;;;;;;;43.15;24.02;;;-0.30;70.70;;;;;;5036944;28;20508;-23
2021/12/18 02:22:28;;;;;;;23.90;12.35;;;-0.40;70.70;;;;;;5036392;28;20053;-22
2021/12/18 02:24:54;;;;;;;28.88;13.48;;;-0.40;70.60;;;;;;5036432;28;20401;-24
2021/12/18 02:27:20;;;;;;;28.20;15.43;;;-0.40;70.80;;;;;;5036775;28;20036;-23
2021/12/18 02:29:46;;;;;;;19.20;11.15;;;-0.40;70.90;;;;;;5036826;28;20040;-24
2021/12/18 02:32:18;;;;;;;42.95;25.95;;;-0.40;70.80;;;;;;5036080;28;20502;-27
2021/12/18 02:34:52;;;;;;;38.08;21.55;;;-0.40;71.20;;;;;;5036692;28;20037;-23
2021/12/18 02:37:23;;;;;;;16.58;7.90;;;-0.40;71.10;;;;;;5036074;28;20068;-23
2021/12/18 02:42:24;;;;;;;20.33;12.63;;;-0.50;71.10;;;;;;5036447;28;20030;-22
2021/12/18 02:44:51;;;;;;;15.32;8.68;;;-0.50;71.00;;;;;;5036382;28;20128;-23
2021/12/18 02:47:17;;;;;;;21.42;11.07;;;-0.50;70.80;;;;;;5036012;28;20029;-22
2021/12/18 02:49:45;;;;;;;21.15;11.77;;;-0.50;70.60;;;;;;5035989;28;20032;-22
2021/12/18 02:52:12;;;;;;;18.85;11.55;;;-0.50;70.80;;;;;;5036338;28;20110;-22
2021/12/18 02:54:40;;;;;;;35.40;19.35;;;-0.50;70.60;;;;;;5035916;28;20160;-23
2021/12/18 02:57:06;;;;;;;30.70;18.52;;;-0.50;70.70;;;;;;5035917;28;20389;-23
2021/12/18 02:59:46;;;;;;;38.60;21.42;;;-0.50;70.90;;;;;;5035775;28;20057;-22
2021/12/18 03:02:13;;;;;;;30.35;17.25;;;-0.60;70.80;;;;;;5035808;28;20509;-22
2021/12/18 03:04:42;;;;;;;29.38;16.08;;;-0.60;71.10;;;;;;5035748;28;20504;-22
2021/12/18 03:07:10;;;;;;;17.33;10.70;;;-0.60;70.90;;;;;;5036048;28;20029;-23
2021/12/18 03:25:35;;;;;;;65.97;37.47;;;-0.60;70.40;;;;;;5035763;28;20435;-23
2021/12/18 03:28:05;;;;;;;54.05;31.00;;;-0.60;73.10;;;;;;5034108;28;20149;-23
2021/12/18 03:30:33;;;;;;;51.30;30.08;;;-0.60;75.10;;;;;;5035112;28;20030;-23
2021/12/18 03:32:59;;;;;;;60.22;31.60;;;-0.50;76.50;;;;;;5035150;28;20029;-22
2021/12/18 03:35:26;;;;;;;45.70;26.85;;;-0.50;77.30;;;;;;5035559;28;20474;-23
2021/12/18 03:37:55;;;;;;;29.05;15.55;;;-0.40;76.00;;;;;;5035197;28;20509;-23
2021/12/18 03:40:24;;;;;;;18.70;9.75;;;-0.40;74.20;;;;;;5035315;28;20029;-22
2021/12/18 03:42:52;;;;;;;20.90;12.55;;;-0.30;74.20;;;;;;5035402;28;20084;-23
2021/12/18 03:45:20;;;;;;;22.95;11.82;;;-0.10;74.00;;;;;;5035323;28;20025;-23
2021/12/18 03:47:46;;;;;;;19.45;9.98;;;0.00;73.00;;;;;;5035205;28;20026;-22
2021/12/18 03:50:13;;;;;;;29.08;15.63;;;0.00;72.00;;;;;;5035048;28;20051;-25
2021/12/18 03:52:39;;;;;;;16.15;8.63;;;0.10;72.20;;;;;;5034899;28;20025;-22
2021/12/18 03:55:06;;;;;;;25.50;16.35;;;0.20;72.20;;;;;;5033290;28;20038;-23
2021/12/18 03:57:32;;;;;;;24.20;13.40;;;0.30;71.80;;;;;;5035090;28;20056;-22
2021/12/18 03:59:58;;;;;;;38.72;22.55;;;0.40;72.00;;;;;;5034979;28;20056;-23
2021/12/18 04:02:25;;;;;;;20.35;11.20;;;0.50;71.40;;;;;;5033254;28;20025;-22
2021/12/18 04:04:51;;;;;;;43.03;25.50;;;0.60;70.90;;;;;;5034833;28;20482;-25
2021/12/18 04:07:17;;;;;;;23.45;13.43;;;0.60;70.70;;;;;;5034580;28;20493;-22
2021/12/18 04:09:43;;;;;;;13.55;7.13;;;0.70;70.70;;;;;;5034820;28;20068;-23
2021/12/18 04:12:09;;;;;;;15.68;9.63;;;0.80;70.20;;;;;;5033941;28;20021;-25
2021/12/18 04:14:35;;;;;;;23.05;12.57;;;0.80;69.60;;;;;;5034337;28;20095;-23
2021/12/18 04:17:03;;;;;;;26.58;12.93;;;0.80;69.40;;;;;;5034653;28;20409;-23
2021/12/18 04:19:29;;;;;;;19.67;10.95;;;0.80;69.20;;;;;;5034352;28;20025;-23
2021/12/18 04:21:55;;;;;;;14.25;8.05;;;0.90;69.30;;;;;;5034393;28;20097;-22
2021/12/18 04:24:21;;;;;;;27.83;17.10;;;0.80;69.00;;;;;;5034014;28;20482;-23
2021/12/18 04:26:47;;;;;;;15.50;8.75;;;0.90;69.00;;;;;;5034210;28;20037;-23
2021/12/18 04:29:13;;;;;;;18.25;10.30;;;0.90;69.00;;;;;;5034165;28;20437;-22
2021/12/18 04:31:39;;;;;;;28.52;15.40;;;0.80;69.10;;;;;;5034157;28;20025;-23
2021/12/18 04:34:07;;;;;;;19.95;10.57;;;0.80;69.10;;;;;;5034287;28;20025;-23
2021/12/18 04:36:34;;;;;;;25.75;15.25;;;0.80;69.10;;;;;;5034087;28;20029;-22
2021/12/18 04:39:02;;;;;;;17.98;10.32;;;0.80;69.30;;;;;;5034341;28;20104;-23
2021/12/18 04:41:41;;;;;;;18.00;10.35;;;0.70;69.30;;;;;;5034257;28;20056;-23
2021/12/18 04:44:07;;;;;;;24.10;14.15;;;0.70;69.10;;;;;;5034302;28;20060;-23
2021/12/18 04:46:33;;;;;;;17.52;9.48;;;0.60;69.30;;;;;;5033896;28;20087;-22
2021/12/18 04:48:59;;;;;;;26.33;15.63;;;0.60;69.40;;;;;;5032568;28;20112;-23
2021/12/18 04:51:26;;;;;;;27.45;14.55;;;0.60;69.80;;;;;;5034123;28;20052;-23
2021/12/18 04:53:52;;;;;;;26.75;17.42;;;0.50;69.60;;;;;;5032560;28;20478;-23
2021/12/18 04:56:18;;;;;;;22.85;13.60;;;0.50;69.70;;;;;;5033845;28;20027;-22
2021/12/18 04:58:44;;;;;;;25.88;13.52;;;0.40;70.50;;;;;;5034467;28;20026;-23
2021/12/18 05:01:10;;;;;;;12.75;6.85;;;0.40;70.20;;;;;;5033915;28;20067;-22
2021/12/18 05:03:38;;;;;;;12.82;6.43;;;0.40;70.20;;;;;;5033816;28;20022;-22
2021/12/18 05:06:04;;;;;;;16.15;8.90;;;0.40;70.00;;;;;;5033465;28;20108;-22
2021/12/18 05:08:30;;;;;;;21.58;11.57;;;0.30;71.10;;;;;;5033322;28;20116;-22
2021/12/18 05:10:57;;;;;;;19.25;10.02;;;0.30;71.60;;;;;;5034092;28;20029;-21
2021/12/18 05:13:23;;;;;;;26.67;15.85;;;0.30;72.20;;;;;;5033789;28;20033;-22
2021/12/18 05:15:48;;;;;;;16.40;9.02;;;0.30;71.10;;;;;;5033678;28;20108;-22
2021/12/18 05:18:14;;;;;;;11.23;6.90;;;0.30;72.80;;;;;;5033377;28;20033;-22
2021/12/18 05:20:40;;;;;;;13.75;7.60;;;0.30;71.80;;;;;;5033340;28;20383;-23
2021/12/18 05:23:06;;;;;;;20.88;11.80;;;0.40;72.30;;;;;;5033426;28;20040;-22
2021/12/18 05:25:32;;;;;;;17.67;10.10;;;0.40;73.20;;;;;;5033423;28;20488;-22
2021/12/18 05:27:58;;;;;;;16.98;10.57;;;0.50;73.50;;;;;;5033514;28;20029;-22
2021/12/18 05:30:24;;;;;;;23.83;12.95;;;0.50;72.70;;;;;;5032987;28;20497;-23
2021/12/18 05:32:49;;;;;;;25.67;13.20;;;0.60;73.40;;;;;;5033082;28;20026;-22
2021/12/18 05:35:16;;;;;;;29.63;16.45;;;0.70;73.90;;;;;;5031883;28;20422;-22
2021/12/18 05:40:15;;;;;;;22.75;11.85;;;0.80;72.30;;;;;;5033138;28;20033;-22
2021/12/18 05:42:41;;;;;;;23.90;12.75;;;0.80;72.40;;;;;;5033079;28;20033;-23
2021/12/18 05:45:08;;;;;;;19.85;9.38;;;0.90;72.60;;;;;;5032958;28;20029;-22
2021/12/18 05:47:35;;;;;;;9.07;4.90;;;0.90;73.00;;;;;;5033469;28;20393;-25
2021/12/18 05:50:02;;;;;;;12.82;6.93;;;1.00;72.30;;;;;;5033094;28;20381;-22
2021/12/18 05:52:28;;;;;;;13.48;7.90;;;1.00;71.80;;;;;;5033386;28;20028;-25
2021/12/18 05:54:54;;;;;;;14.43;7.22;;;1.10;72.10;;;;;;5032947;28;20021;-24
2021/12/18 05:57:20;;;;;;;8.40;4.65;;;1.10;71.90;;;;;;5033240;28;20036;-23
2021/12/18 05:59:46;;;;;;;11.35;4.47;;;1.20;72.10;;;;;;5032904;28;20053;-24
2021/12/18 06:02:12;;;;;;;12.60;6.18;;;1.30;71.50;;;;;;5032929;28;20061;-23
2021/12/18 06:04:38;;;;;;;7.55;4.45;;;1.30;71.80;;;;;;5032666;28;20512;-23
2021/12/18 06:07:05;;;;;;;14.68;6.78;;;1.30;72.20;;;;;;5033008;28;20048;-25
2021/12/18 06:09:35;;;;;;;8.60;5.00;;;1.40;72.00;;;;;;5032886;28;20038;-23
2021/12/18 06:12:02;;;;;;;15.00;7.07;;;1.40;71.90;;;;;;5031590;28;20037;-23
2021/12/18 06:14:29;;;;;;;15.10;7.93;;;1.40;71.90;;;;;;5032732;28;20041;-23
2021/12/18 06:16:56;;;;;;;7.63;3.50;;;1.50;71.40;;;;;;5033106;28;20030;-23
2021/12/18 06:19:22;;;;;;;7.32;3.85;;;1.50;71.20;;;;;;5031393;28;20393;-23
2021/12/18 06:21:48;;;;;;;13.90;7.20;;;1.50;71.30;;;;;;5032704;28;20037;-23
2021/12/18 06:24:14;;;;;;;6.32;2.88;;;1.60;72.00;;;;;;5032501;28;20108;-23
2021/12/18 06:26:41;;;;;;;7.13;3.55;;;1.60;71.40;;;;;;5032612;28;20125;-23
2021/12/18 06:29:08;;;;;;;23.70;10.07;;;1.60;71.20;;;;;;5032929;28;20022;-24
2021/12/18 06:31:37;;;;;;;8.60;4.20;;;1.70;71.90;;;;;;5032633;28;20108;-24
2021/12/18 06:34:04;;;;;;;16.42;7.78;;;1.70;70.90;;;;;;5032626;28;20065;-24
2021/12/18 06:36:30;;;;;;;7.70;3.75;;;1.70;71.30;;;;;;5036273;28;20030;-23
2021/12/18 06:38:56;;;;;;;8.40;4.20;;;1.70;71.20;;;;;;5036638;28;20401;-24
2021/12/18 06:41:22;;;;;;;15.77;7.20;;;1.70;70.80;;;;;;5036538;28;20029;-25
2021/12/18 06:43:48;;;;;;;7.00;3.97;;;1.80;71.00;;;;;;5036360;28;20040;-24
2021/12/18 06:46:14;;;;;;;17.17;7.07;;;1.80;71.00;;;;;;5035826;28;20116;-24
2021/12/18 06:48:39;;;;;;;16.35;8.27;;;1.80;70.90;;;;;;5036354;28;20029;-25
2021/12/18 06:51:05;;;;;;;13.50;6.97;;;1.80;71.00;;;;;;5036382;28;20029;-25
2021/12/18 06:53:31;;;;;;;9.82;5.18;;;1.90;71.10;;;;;;5036285;28;20512;-25
2021/12/18 06:55:58;;;;;;;14.73;7.72;;;1.90;71.30;;;;;;5035991;28;20489;-25
2021/12/18 06:58:24;;;;;;;13.50;5.63;;;1.90;71.30;;;;;;5034519;28;20437;-24
2021/12/18 07:00:52;;;;;;;11.90;5.68;;;1.90;71.40;;;;;;5036179;28;20029;-23
2021/12/18 07:03:19;;;;;;;47.40;18.83;;;2.00;71.30;;;;;;5035706;28;20043;-23
2021/12/18 07:05:46;;;;;;;33.15;13.13;;;2.00;71.50;;;;;;5035779;28;20390;-25
2021/12/18 07:08:12;;;;;;;17.27;8.07;;;2.00;71.80;;;;;;5035942;28;20098;-27
2021/12/18 07:10:38;;;;;;;36.53;15.27;;;2.00;71.60;;;;;;5036038;28;20112;-25
2021/12/18 07:13:04;;;;;;;10.85;4.95;;;2.10;71.90;;;;;;5035638;28;20029;-24
2021/12/18 07:15:30;;;;;;;48.75;20.33;;;2.10;72.00;;;;;;5035603;28;20163;-23
2021/12/18 07:17:56;;;;;;;29.15;15.13;;;2.10;72.30;;;;;;5035500;28;20067;-25
2021/12/18 07:20:22;;;;;;;14.70;6.45;;;2.20;72.70;;;;;;5034135;28;20021;-25
2021/12/18 07:22:48;;;;;;;13.80;6.22;;;2.20;72.20;;;;;;5035726;28;20029;-25
2021/12/18 07:25:14;;;;;;;17.92;8.52;;;2.20;71.50;;;;;;5035322;28;20026;-25
2021/12/18 07:27:41;;;;;;;20.05;9.48;;;2.30;71.40;;;;;;5035385;28;20029;-25
2021/12/18 07:30:08;;;;;;;24.23;12.68;;;2.30;71.60;;;;;;5035980;28;20033;-25
2021/12/18 07:32:34;;;;;;;38.75;17.60;;;2.40;72.00;;;;;;5035051;28;20108;-26
2021/12/18 07:35:00;;;;;;;32.22;16.90;;;2.40;71.80;;;;;;5035226;28;20112;-25
2021/12/18 07:37:26;;;;;;;20.60;10.82;;;2.40;73.10;;;;;;5035188;28;20076;-27
2021/12/18 07:39:53;;;;;;;27.55;14.48;;;2.50;72.40;;;;;;5035193;28;20108;-25
2021/12/18 07:42:19;;;;;;;17.63;9.52;;;2.60;72.10;;;;;;5033714;28;20029;-25
2021/12/18 07:44:45;;;;;;;16.38;9.73;;;2.60;72.40;;;;;;5035615;28;20109;-25
2021/12/18 07:47:11;;;;;;;22.77;11.35;;;2.60;72.10;;;;;;5035348;28;20417;-25
2021/12/18 07:49:37;;;;;;;35.22;15.95;;;2.70;72.10;;;;;;5035209;28;20084;-25
2021/12/18 07:52:04;;;;;;;19.88;11.45;;;2.70;73.70;;;;;;5034967;28;20025;-27
2021/12/18 07:54:31;;;;;;;30.83;15.82;;;2.80;72.10;;;;;;5034700;28;20064;-25
2021/12/18 07:56:57;;;;;;;40.67;20.88;;;2.80;72.40;;;;;;5035165;28;20128;-25
2021/12/18 07:59:24;;;;;;;25.52;13.10;;;2.90;72.80;;;;;;5034995;28;20029;-27
2021/12/18 08:01:50;;;;;;;31.75;15.07;;;2.90;72.40;;;;;;5034960;28;20393;-26
2021/12/18 08:04:16;;;;;;;27.90;14.50;;;3.10;72.50;;;;;;5034440;28;20033;-24
2021/12/18 08:06:42;;;;;;;18.00;8.90;;;3.10;72.00;;;;;;5034898;28;20047;-25
2021/12/18 08:09:08;;;;;;;20.25;11.63;;;3.30;72.00;;;;;;5034612;28;20473;-25
2021/12/18 08:11:34;;;;;;;23.98;14.13;;;3.40;72.60;;;;;;5034856;28;20112;-24
2021/12/18 08:14:00;;;;;;;28.33;17.15;;;3.50;71.90;;;;;;5033338;28;20029;-25
2021/12/18 08:16:26;;;;;;;22.95;15.20;;;3.70;72.30;;;;;;5034254;28;20051;-25
2021/12/18 08:18:52;;;;;;;36.55;20.83;;;3.80;71.90;;;;;;5034571;28;20025;-25
2021/12/18 08:21:18;;;;;;;22.95;12.52;;;3.90;71.30;;;;;;5034344;28;20036;-25
2021/12/18 08:23:44;;;;;;;26.42;16.20;;;4.10;70.90;;;;;;5034348;28;20053;-24
2021/12/18 08:26:10;;;;;;;25.85;15.02;;;4.20;70.70;;;;;;5034213;28;20067;-25
2021/12/18 08:28:36;;;;;;;19.25;10.77;;;4.40;70.80;;;;;;5034338;28;20038;-25
2021/12/18 08:31:02;;;;;;;19.02;10.88;;;4.50;70.80;;;;;;5034646;28;20366;-25
2021/12/18 08:33:28;;;;;;;36.17;22.35;;;4.60;70.70;;;;;;5034314;28;20029;-25
2021/12/18 08:35:54;;;;;;;33.70;19.08;;;4.60;70.20;;;;;;5034412;28;20432;-25
2021/12/18 08:38:20;;;;;;;19.08;10.57;;;4.80;70.30;;;;;;5033619;28;20501;-25
2021/12/18 08:40:46;;;;;;;32.53;19.38;;;4.80;69.90;;;;;;5033905;28;20028;-25
2021/12/18 08:43:12;;;;;;;21.85;13.32;;;4.90;70.30;;;;;;5033943;28;20398;-25
2021/12/18 08:45:39;;;;;;;31.77;21.33;;;4.90;69.90;;;;;;5032628;28;20025;-26
2021/12/18 08:48:05;;;;;;;18.15;11.35;;;5.00;70.30;;;;;;5034348;28;20030;-25
2021/12/18 08:50:32;;;;;;;32.53;20.00;;;5.10;69.90;;;;;;5033928;28;20382;-24
2021/12/18 08:52:57;;;;;;;34.15;22.48;;;5.10;70.70;;;;;;5033780;28;20501;-25
2021/12/18 08:55:24;;;;;;;17.50;11.05;;;5.10;70.10;;;;;;5033781;28;20040;-25
2021/12/18 08:57:51;;;;;;;27.33;16.83;;;5.20;69.80;;;;;;5033348;28;20028;-24
2021/12/18 09:00:21;;;;;;;26.55;16.33;;;5.30;69.60;;;;;;5033524;28;20034;-25
2021/12/18 09:02:48;;;;;;;33.33;21.30;;;5.30;69.40;;;;;;5033546;28;20029;-25
2021/12/18 09:05:15;;;;;;;26.92;18.77;;;5.30;70.10;;;;;;5033502;28;20116;-25
2021/12/18 09:07:42;;;;;;;44.47;27.30;;;5.40;70.00;;;;;;5034625;28;20386;-26
2021/12/18 09:10:09;;;;;;;24.70;14.95;;;5.40;71.00;;;;;;5033801;28;20106;-26
2021/12/18 09:12:34;;;;;;;32.17;20.23;;;5.50;69.80;;;;;;5032910;28;20036;-26
2021/12/18 09:15:01;;;;;;;24.67;15.63;;;5.50;70.20;;;;;;5034421;28;20029;-25
2021/12/18 09:17:27;;;;;;;30.40;20.13;;;5.60;69.80;;;;;;5033735;28;20039;-25
2021/12/18 09:19:53;;;;;;;32.28;20.42;;;5.60;70.70;;;;;;5033596;28;20037;-26
2021/12/18 09:22:19;;;;;;;34.00;21.35;;;5.70;71.30;;;;;;5033180;28;20030;-26
2021/12/18 09:24:46;;;;;;;53.35;29.10;;;5.70;71.40;;;;;;5033163;28;20030;-25
2021/12/18 09:27:12;;;;;;;24.00;14.50;;;5.80;70.90;;;;;;5033326;28;20075;-25
2021/12/18 09:29:38;;;;;;;33.72;20.52;;;5.80;70.40;;;;;;5033220;28;20030;-25
2021/12/18 09:32:04;;;;;;;29.10;17.85;;;5.90;70.50;;;;;;5033367;28;20108;-25
2021/12/18 09:34:31;;;;;;;28.05;16.65;;;5.90;70.20;;;;;;5033104;28;20031;-26
2021/12/18 09:36:57;;;;;;;25.13;14.43;;;6.00;70.20;;;;;;5033549;28;20053;-25
2021/12/18 09:39:23;;;;;;;22.48;13.32;;;6.10;70.00;;;;;;5033158;28;20483;-25
2021/12/18 09:41:51;;;;;;;48.22;27.02;;;6.20;70.00;;;;;;5033058;28;20052;-25
2021/12/18 09:44:26;;;;;;;48.42;23.17;;;6.20;70.90;;;;;;5032839;28;20401;-25
2021/12/18 09:46:53;;;;;;;31.85;17.20;;;6.30;70.70;;;;;;5033033;28;20021;-25
2021/12/18 09:49:20;;;;;;;38.75;20.88;;;6.40;70.90;;;;;;5033247;28;20037;-25
2021/12/18 09:51:47;;;;;;;35.67;19.27;;;6.40;70.60;;;;;;5032948;28;20029;-25
2021/12/18 09:54:13;;;;;;;32.90;17.33;;;6.50;70.60;;;;;;5032766;28;20034;-25
2021/12/18 09:56:39;;;;;;;39.78;19.98;;;6.50;70.50;;;;;;5031758;28;20026;-25
2021/12/18 09:59:06;;;;;;;41.95;18.77;;;6.60;71.60;;;;;;5032900;28;20037;-26
2021/12/18 10:01:33;;;;;;;41.40;20.08;;;6.70;71.60;;;;;;5033193;28;20029;-26
2021/12/18 10:04:01;;;;;;;48.72;24.02;;;6.80;70.80;;;;;;5032714;28;20041;-26
2021/12/18 10:06:39;;;;;;;60.58;21.33;;;6.90;70.70;;;;;;5032575;28;20030;-25
2021/12/18 10:09:29;;;;;;;24.90;12.15;;;7.10;71.80;;;;;;5031865;28;20368;-25
2021/12/18 10:12:01;;;;;;;75.10;20.67;;;7.20;70.90;;;;;;5037076;28;20500;-26
2021/12/18 10:14:36;;;;;;;43.40;16.10;;;7.30;70.70;;;;;;5036682;28;20053;-24
2021/12/18 10:17:04;;;;;;;59.00;16.52;;;7.40;71.80;;;;;;5036697;28;20485;-25
2021/12/18 10:19:36;;;;;;;46.25;14.38;;;7.50;71.80;;;;;;5036525;28;20072;-25
2021/12/18 10:22:07;;;;;;;54.75;17.10;;;7.60;72.40;;;;;;5036687;28;20108;-27
2021/12/18 10:24:36;;;;;;;50.38;17.88;;;7.60;72.30;;;;;;5036381;28;20481;-25
2021/12/18 10:27:20;;;;;;;22.27;9.68;;;7.60;72.40;;;;;;5036539;28;20401;-26
2021/12/18 10:29:47;;;;;;;;;;;7.60;71.50;;;;;;5036978;28;20029;-26
2021/12/18 10:32:19;;;;;;;62.08;19.73;;;7.70;73.00;;;;;;5036322;28;19905;-26
2021/12/18 10:34:56;;;;;;;36.90;15.23;;;7.70;72.60;;;;;;5036351;28;20482;-26
2021/12/18 10:37:31;;;;;;;14.70;6.95;;;7.70;72.40;;;;;;5036863;28;20112;-25
2021/12/18 10:40:01;;;;;;;32.42;12.35;;;7.80;71.90;;;;;;5035183;28;20121;-25
2021/12/18 10:42:31;;;;;;;20.45;9.07;;;7.80;71.50;;;;;;5036382;28;20091;-25
2021/12/18 10:45:12;;;;;;;21.13;10.10;;;7.90;71.50;;;;;;5036587;28;20034;-26
2021/12/18 10:48:00;;;;;;;29.77;12.98;;;7.90;71.40;;;;;;5036478;28;20094;-25
2021/12/18 10:50:45;;;;;;;19.48;8.75;;;7.90;71.20;;;;;;5036371;28;20033;-25
2021/12/18 10:53:18;;;;;;;31.08;14.48;;;8.00;71.10;;;;;;5036391;28;20033;-25
2021/12/18 10:55:44;;;;;;;34.83;13.48;;;8.10;71.20;;;;;;5036036;28;20033;-25
2021/12/18 10:58:18;;;;;;;29.52;14.00;;;8.10;71.50;;;;;;5035896;28;20108;-26
2021/12/18 11:00:47;;;;;;;27.50;12.40;;;8.20;71.30;;;;;;5035977;28;20026;-27
2021/12/18 11:03:23;;;;;;;27.75;12.55;;;8.30;71.50;;;;;;5036400;28;20100;-26
2021/12/18 11:06:08;;;;;;;29.65;13.95;;;8.40;71.50;;;;;;5035793;28;20539;-26
2021/12/18 11:08:38;;;;;;;26.75;12.50;;;8.50;71.40;;;;;;5035567;28;20025;-25
2021/12/18 11:13:54;;;;;;;14.80;6.40;;;8.80;71.20;;;;;;5024595;28;20080;-26
2021/12/18 11:16:22;;;;;;;25.52;12.35;;;8.90;71.10;;;;;;5034223;28;20030;-25
2021/12/18 11:18:48;;;;;;;19.83;8.32;;;9.10;71.00;;;;;;5035523;28;20382;-26
2021/12/18 11:21:14;;;;;;;23.95;10.90;;;9.30;70.80;;;;;;5035535;28;20501;-25
2021/12/18 11:24:04;;;;;;;22.48;11.07;;;9.50;70.80;;;;;;5035652;28;20025;-26
2021/12/18 11:26:43;;;;;;;30.70;13.98;;;9.70;70.70;;;;;;5035225;28;20064;-25
2021/12/18 11:29:21;;;;;;;34.15;15.65;;;9.80;70.60;;;;;;5035431;28;20112;-25
2021/12/18 11:31:48;;;;;;;21.60;10.48;;;9.90;70.50;;;;;;5035649;28;20068;-26
2021/12/18 11:34:16;;;;;;;30.73;15.45;;;10.20;70.40;;;;;;5033794;28;20022;-26
2021/12/18 11:36:45;;;;;;;18.77;9.95;;;10.30;70.30;;;;;;5034994;28;20022;-25
2021/12/18 11:39:14;;;;;;;22.75;11.13;;;10.50;70.00;;;;;;5035395;28;20034;-25
2021/12/18 11:41:41;;;;;;;23.52;12.38;;;10.60;70.20;;;;;;5035459;28;20030;-25
2021/12/18 11:44:26;;;;;;;22.85;11.55;;;10.80;70.00;;;;;;5033920;28;20030;-24
2021/12/18 11:46:53;;;;;;;22.67;11.57;;;10.90;69.80;;;;;;5035870;28;20083;-25
2021/12/18 11:49:21;;;;;;;19.13;9.52;;;11.10;69.50;;;;;;5034952;28;20040;-26
2021/12/18 11:52:03;;;;;;;22.70;12.10;;;11.30;69.50;;;;;;5035316;28;20201;-25
2021/12/18 11:54:39;;;;;;;15.93;7.82;;;11.40;69.40;;;;;;5035095;28;20021;-25
2021/12/18 11:57:13;;;;;;;14.00;6.68;;;11.60;69.20;;;;;;5034796;28;20489;-25
2021/12/18 11:59:43;;;;;;;;;;;11.80;69.10;;;;;;5035585;28;20022;-26
2021/12/18 12:02:11;;;;;;;23.65;12.60;;;12.00;69.00;;;;;;5034775;28;19905;-25
2021/12/18 12:05:10;;;;;;;15.77;7.90;;;12.30;68.90;;;;;;5034463;28;20021;-25
2021/12/18 12:07:37;;;;;;;22.95;12.55;;;12.50;68.70;;;;;;5013286;28;20036;-26
2021/12/18 12:10:21;;;;;;;19.45;10.05;;;12.80;68.30;;;;;;5012774;28;20061;-24
2021/12/18 12:12:56;;;;;;;19.75;10.45;;;13.10;67.80;;;;;;5012793;28;20036;-25
2021/12/18 12:15:27;;;;;;;20.95;11.77;;;13.40;67.30;;;;;;5012703;28;20025;-26
2021/12/18 12:18:11;;;;;;;26.10;15.10;;;13.70;66.60;;;;;;5013138;28;20576;-26
2021/12/18 12:20:46;;;;;;;31.48;17.33;;;14.00;64.40;;;;;;5012666;28;20034;-25
2021/12/18 12:23:14;;;;;;;31.88;18.55;;;14.30;64.90;;;;;;5012602;28;20036;-26
2021/12/18 12:25:40;;;;;;;26.17;15.73;;;14.50;64.30;;;;;;5012921;28;20478;-26
2021/12/18 12:28:15;;;;;;;33.85;18.88;;;14.60;63.80;;;;;;4996102;28;20033;-26
2021/12/18 12:30:46;;;;;;;26.58;17.13;;;14.80;63.60;;;;;;5012416;28;20029;-26
2021/12/18 12:33:24;;;;;;;27.05;15.35;;;14.80;63.20;;;;;;5011429;28;20037;-26
2021/12/18 12:36:10;;;;;;;27.13;16.45;;;14.90;62.80;;;;;;5012353;28;20514;-26
2021/12/18 12:39:07;;;;;;;30.00;17.33;;;14.90;62.80;;;;;;5011888;28;20053;-25
2021/12/18 12:41:52;;;;;;;27.20;15.75;;;14.90;62.70;;;;;;4953860;29;20546;-25
2021/12/18 12:44:28;;;;;;;24.02;14.35;;;14.80;62.30;;;;;;4935041;29;20495;-26
2021/12/18 12:47:15;;;;;;;28.08;17.02;;;14.80;62.50;;;;;;4934704;29;20039;-26
2021/12/18 12:49:42;;;;;;;29.02;17.02;;;14.70;62.30;;;;;;4934549;29;20073;-26
2021/12/18 12:52:11;;;;;;;29.40;18.23;;;14.60;62.40;;;;;;4934723;29;20070;-26
2021/12/18 12:54:57;;;;;;;33.63;20.25;;;14.70;62.50;;;;;;4934471;29;20111;-26
2021/12/18 12:57:23;;;;;;;30.95;18.85;;;14.60;62.20;;;;;;4934521;29;20059;-26
2021/12/18 13:00:11;;;;;;;26.35;16.48;;;14.60;62.40;;;;;;4934805;29;20082;-26
2021/12/18 13:02:57;;;;;;;29.33;17.88;;;14.60;62.30;;;;;;4932442;29;20032;-26
2021/12/18 13:05:24;;;;;;;34.60;20.42;;;14.70;62.10;;;;;;4934313;29;20046;-27
2021/12/18 13:08:01;;;;;;;35.67;20.52;;;14.70;62.10;;;;;;4934350;29;20419;-25
2021/12/18 13:10:32;;;;;;;28.10;16.65;;;14.60;62.00;;;;;;4934306;29;20160;-26
2021/12/18 13:13:02;;;;;;;29.80;19.35;;;14.60;62.30;;;;;;4934299;29;20027;-25
2021/12/18 13:15:51;;;;;;;29.02;18.45;;;14.60;62.40;;;;;;4934247;29;20042;-25
2021/12/18 13:18:18;;;;;;;27.83;16.80;;;14.60;62.40;;;;;;4972530;28;20026;-26
2021/12/18 13:20:55;;;;;;;28.80;17.95;;;14.50;62.30;;;;;;4994001;28;20038;-26
2021/12/18 13:23:44;;;;;;;23.80;15.63;;;14.60;62.20;;;;;;4994379;28;20061;-25
2021/12/18 13:26:23;;;;;;;27.33;17.77;;;14.50;62.30;;;;;;4993664;28;20073;-27
2021/12/18 13:28:53;;;;;;;24.52;15.27;;;14.50;61.90;;;;;;4994235;28;20086;-26
2021/12/18 13:31:23;;;;;;;24.35;15.13;;;14.50;62.00;;;;;;4994182;28;20089;-27